createdAt,value
2022-09-03T00:00:30.358Z,2.42
2022-09-03T00:01:38.239Z,2.15
2022-09-03T00:02:48.669Z,2.00
2022-09-03T00:04:11.993Z,2.53
2022-09-03T00:05:16.877Z,2.20
2022-09-03T00:06:21.887Z,2.30
2022-09-03T00:07:39.807Z,1.77
2022-09-03T00:09:04.712Z,2.13
2022-09-03T00:10:16.241Z,2.20
2022-09-03T00:11:32.787Z,2.22
2022-09-03T00:12:39.449Z,1.70
2022-09-03T00:13:55.619Z,1.90
2022-09-03T00:15:15.217Z,1.92
2022-09-03T00:16:18.407Z,2.30
2022-09-03T00:17:23.049Z,2.13
2022-09-03T00:18:28.367Z,2.13
2022-09-03T00:19:34.237Z,2.83
2022-09-03T00:20:57.621Z,2.00
2022-09-03T00:22:01.830Z,2.20
2022-09-03T00:23:07.958Z,1.98
2022-09-03T00:24:14.111Z,2.00
2022-09-03T00:25:39.661Z,2.42
2022-09-03T00:26:44.902Z,2.20
2022-09-03T00:27:51.094Z,2.47
2022-09-03T00:28:59.865Z,2.10
2022-09-03T00:30:04.130Z,2.35
2022-09-03T00:31:07.683Z,2.15
2022-09-03T00:32:22.813Z,2.33
2022-09-03T00:33:26.912Z,2.17
2022-09-03T00:34:34.439Z,2.30
2022-09-03T00:35:47.775Z,2.10
2022-09-03T00:36:50.144Z,2.38
2022-09-03T00:37:53.140Z,2.67
2022-09-03T00:38:54.800Z,2.30
2022-09-03T00:39:56.541Z,1.93
2022-09-03T00:41:33.739Z,2.45
2022-09-03T00:42:39.406Z,2.15
2022-09-03T00:43:46.357Z,2.08
2022-09-03T00:45:11.221Z,2.22
2022-09-03T00:46:27.375Z,2.83
2022-09-03T00:48:04.603Z,2.90
2022-09-03T00:49:24.850Z,2.55
2022-09-03T00:50:45.477Z,2.70
2022-09-03T00:51:51.765Z,2.45
2022-09-03T00:53:05.207Z,2.47
2022-09-03T00:54:33.108Z,2.40
2022-09-03T00:55:58.871Z,2.65
2022-09-03T00:57:13.866Z,2.38
2022-09-03T00:58:18.202Z,2.35
2022-09-03T00:59:59.127Z,2.38
2022-09-03T01:01:03.243Z,2.38
2022-09-03T01:02:21.157Z,2.25
2022-09-03T01:03:43.198Z,2.38
2022-09-03T01:05:07.420Z,2.38
2022-09-03T01:06:18.918Z,2.47
2022-09-03T01:07:39.158Z,3.00
2022-09-03T01:09:03.140Z,2.65
2022-09-03T01:10:26.941Z,2.47
2022-09-03T01:12:13.610Z,2.95
2022-09-03T01:13:20.550Z,2.90
2022-09-03T01:14:41.248Z,3.80
2022-09-03T01:15:59.645Z,2.28
2022-09-03T01:17:17.146Z,2.63
2022-09-03T01:18:22.089Z,2.67
2022-09-03T01:19:45.990Z,2.80
2022-09-03T01:20:57.091Z,2.85
2022-09-03T01:22:20.542Z,3.13
2022-09-03T01:23:22.113Z,2.80
2022-09-03T01:25:11.702Z,3.08
2022-09-03T01:26:28.297Z,2.90
2022-09-03T01:27:52.900Z,2.50
2022-09-03T01:29:06.860Z,2.95
2022-09-03T01:30:18.090Z,3.17
2022-09-03T01:31:26.850Z,3.42
2022-09-03T01:32:53.326Z,3.07
2022-09-03T01:34:15.908Z,3.53
2022-09-03T01:35:24.462Z,3.65
2022-09-03T01:36:32.415Z,4.18
2022-09-03T01:38:00.584Z,4.55
2022-09-03T01:39:04.066Z,4.20
2022-09-03T01:40:19.223Z,4.13
2022-09-03T01:42:04.225Z,4.60
2022-09-03T01:43:34.111Z,4.68
2022-09-03T01:44:58.458Z,4.10
2022-09-03T01:46:15.326Z,3.93
2022-09-03T01:47:41.569Z,4.07
2022-09-03T01:48:46.596Z,4.40
2022-09-03T01:49:57.998Z,4.05
2022-09-03T01:51:09.255Z,4.18
2022-09-03T01:52:21.201Z,4.00
2022-09-03T01:53:44.277Z,5.20
2022-09-03T01:55:07.762Z,4.50
2022-09-03T01:56:18.205Z,4.50
2022-09-03T01:57:42.074Z,4.25
2022-09-03T01:59:21.289Z,3.87
2022-09-03T02:00:23.158Z,5.30
2022-09-03T02:01:46.588Z,4.97
2022-09-03T02:02:51.212Z,4.75
2022-09-03T02:04:00.096Z,4.82
2022-09-03T02:05:25.395Z,4.20
2022-09-03T02:06:28.057Z,4.80
2022-09-03T02:07:38.092Z,4.57
2022-09-03T02:08:40.177Z,5.00
2022-09-03T02:09:41.784Z,4.60
2022-09-03T02:10:56.708Z,4.57
2022-09-03T02:12:12.021Z,4.65
2022-09-03T02:13:25.923Z,4.75
2022-09-03T02:14:27.596Z,4.78
2022-09-03T02:15:31.219Z,5.45
2022-09-03T02:16:33.539Z,5.15
2022-09-03T02:17:35.835Z,4.95
2022-09-03T02:18:58.256Z,5.70
2022-09-03T02:20:01.206Z,5.22
2022-09-03T02:21:02.948Z,4.82
2022-09-03T02:22:04.633Z,6.10
2022-09-03T02:23:06.284Z,5.45
2022-09-03T02:24:08.617Z,5.70
2022-09-03T02:25:11.163Z,5.22
2022-09-03T02:26:13.580Z,5.90
2022-09-03T02:27:15.270Z,5.10
2022-09-03T02:28:17.578Z,5.45
2022-09-03T02:29:19.528Z,4.95
2022-09-03T02:30:21.579Z,5.25
2022-09-03T02:31:23.230Z,4.93
2022-09-03T02:32:24.923Z,4.53
2022-09-03T02:33:26.557Z,4.90
2022-09-03T02:34:28.384Z,5.05
2022-09-03T02:35:30.042Z,4.88
2022-09-03T02:36:36.341Z,5.07
2022-09-03T02:37:38.025Z,4.82
2022-09-03T02:38:41.835Z,5.38
2022-09-03T02:39:43.576Z,4.85
2022-09-03T02:40:45.848Z,5.05
2022-09-03T02:41:51.907Z,4.68
2022-09-03T02:42:53.597Z,5.17
2022-09-03T02:43:59.547Z,5.03
2022-09-03T02:45:06.904Z,5.65
2022-09-03T02:46:10.293Z,5.47
2022-09-03T02:47:12.031Z,5.50
2022-09-03T02:48:13.713Z,5.60
2022-09-03T02:49:15.520Z,5.93
2022-09-03T02:50:17.179Z,5.28
2022-09-03T02:51:18.848Z,5.40
2022-09-03T02:52:20.477Z,5.85
2022-09-03T02:53:22.388Z,5.20
2022-09-03T02:54:24.059Z,5.28
2022-09-03T02:55:25.715Z,4.85
2022-09-03T02:56:27.956Z,5.30
2022-09-03T02:57:29.595Z,5.47
2022-09-03T02:58:31.722Z,5.40
2022-09-03T02:59:33.535Z,5.30
2022-09-03T03:00:36.274Z,5.43
2022-09-03T03:01:38.000Z,5.03
2022-09-03T03:02:39.876Z,5.45
2022-09-03T03:03:41.512Z,5.20
2022-09-03T03:04:43.191Z,4.97
2022-09-03T03:05:49.328Z,4.55
2022-09-03T03:06:51.021Z,4.75
2022-09-03T03:07:52.687Z,4.25
2022-09-03T03:08:55.964Z,4.95
2022-09-03T03:09:57.669Z,4.78
2022-09-03T03:11:00.769Z,5.25
2022-09-03T03:12:02.649Z,5.43
2022-09-03T03:13:04.374Z,5.00
2022-09-03T03:14:06.001Z,4.93
2022-09-03T03:15:07.923Z,5.22
2022-09-03T03:16:09.658Z,5.20
2022-09-03T03:17:11.485Z,4.97
2022-09-03T03:18:14.109Z,5.65
2022-09-03T03:19:15.739Z,5.57
2022-09-03T03:20:17.333Z,5.70
2022-09-03T03:21:19.126Z,6.25
2022-09-03T03:22:20.738Z,5.80
2022-09-03T03:23:22.376Z,5.53
2022-09-03T03:24:24.001Z,4.80
2022-09-03T03:25:25.671Z,4.93
2022-09-03T03:26:27.341Z,4.72
2022-09-03T03:27:29.613Z,4.88
2022-09-03T03:28:34.415Z,4.88
2022-09-03T03:29:36.380Z,4.95
2022-09-03T03:30:39.960Z,4.55
2022-09-03T03:31:41.679Z,4.70
2022-09-03T03:32:43.352Z,4.70
2022-09-03T03:33:45.079Z,4.85
2022-09-03T03:34:46.752Z,4.83
2022-09-03T03:35:48.361Z,4.43
2022-09-03T03:36:49.982Z,5.25
2022-09-03T03:37:51.638Z,5.03
2022-09-03T03:38:54.367Z,4.60
2022-09-03T03:39:56.055Z,5.13
2022-09-03T03:40:57.766Z,5.47
2022-09-03T03:41:59.370Z,5.07
2022-09-03T03:43:01.069Z,5.38
2022-09-03T03:44:04.848Z,5.10
2022-09-03T03:45:06.778Z,5.00
2022-09-03T03:46:08.490Z,4.95
2022-09-03T03:47:10.191Z,4.75
2022-09-03T03:48:11.860Z,5.53
2022-09-03T03:49:13.480Z,5.00
2022-09-03T03:50:15.466Z,4.93
2022-09-03T03:51:17.272Z,5.32
2022-09-03T03:52:18.941Z,5.00
2022-09-03T03:53:20.560Z,5.28
2022-09-03T03:54:22.606Z,5.20
2022-09-03T03:55:27.151Z,5.93
2022-09-03T03:56:28.857Z,5.50
2022-09-03T03:57:31.154Z,5.50
2022-09-03T03:58:33.182Z,5.35
2022-09-03T03:59:34.808Z,5.65
2022-09-03T04:00:37.379Z,4.95
2022-09-03T04:01:39.038Z,5.45
2022-09-03T04:02:40.704Z,5.60
2022-09-03T04:03:42.854Z,5.32
2022-09-03T04:04:44.499Z,6.20
2022-09-03T04:05:59.904Z,5.00
2022-09-03T04:07:01.591Z,5.15
2022-09-03T04:08:03.446Z,5.38
2022-09-03T04:09:05.115Z,5.13
2022-09-03T04:10:07.539Z,5.03
2022-09-03T04:11:14.083Z,4.45
2022-09-03T04:12:15.800Z,5.15
2022-09-03T04:13:17.665Z,4.95
2022-09-03T04:14:19.332Z,5.25
2022-09-03T04:15:20.969Z,4.78
2022-09-03T04:16:24.088Z,5.10
2022-09-03T04:17:26.349Z,5.32
2022-09-03T04:18:28.013Z,4.78
2022-09-03T04:19:30.345Z,4.65
2022-09-03T04:20:32.065Z,4.63
2022-09-03T04:21:33.728Z,4.90
2022-09-03T04:22:35.343Z,4.70
2022-09-03T04:23:39.005Z,4.63
2022-09-03T04:24:40.617Z,5.35
2022-09-03T04:25:42.401Z,4.82
2022-09-03T04:26:44.056Z,4.77
2022-09-03T04:27:45.654Z,5.13
2022-09-03T04:28:47.675Z,4.90
2022-09-03T04:29:49.293Z,5.28
2022-09-03T04:30:50.955Z,4.60
2022-09-03T04:32:11.447Z,4.50
2022-09-03T04:33:16.161Z,4.93
2022-09-03T04:34:18.151Z,5.05
2022-09-03T04:35:21.104Z,5.20
2022-09-03T04:36:24.386Z,4.63
2022-09-03T04:37:26.010Z,4.87
2022-09-03T04:38:29.600Z,4.80
2022-09-03T04:39:31.351Z,5.03
2022-09-03T04:40:33.287Z,5.68
2022-09-03T04:41:35.038Z,4.85
2022-09-03T04:42:36.694Z,4.85
2022-09-03T04:43:38.380Z,5.18
2022-09-03T04:44:41.295Z,4.60
2022-09-03T04:45:42.994Z,5.38
2022-09-03T04:46:47.854Z,4.72
2022-09-03T04:48:02.272Z,4.80
2022-09-03T04:49:04.025Z,4.53
2022-09-03T04:50:06.537Z,5.25
2022-09-03T04:51:13.473Z,4.85
2022-09-03T04:52:15.089Z,5.40
2022-09-03T04:53:16.934Z,4.63
2022-09-03T04:54:18.592Z,4.22
2022-09-03T04:55:20.217Z,4.50
2022-09-03T04:56:23.955Z,4.47
2022-09-03T04:57:25.625Z,4.68
2022-09-03T04:58:27.285Z,4.60
2022-09-03T04:59:29.290Z,4.78
2022-09-03T05:00:30.916Z,3.80
2022-09-03T05:01:33.646Z,4.20
2022-09-03T05:02:35.332Z,4.32
2022-09-03T05:03:39.076Z,4.50
2022-09-03T05:04:40.763Z,4.40
2022-09-03T05:05:42.625Z,4.60
2022-09-03T05:06:45.424Z,4.30
2022-09-03T05:07:47.086Z,4.07
2022-09-03T05:08:49.691Z,4.33
2022-09-03T05:09:52.152Z,4.45
2022-09-03T05:11:00.558Z,4.32
2022-09-03T05:12:02.277Z,4.22
2022-09-03T05:13:05.175Z,4.00
2022-09-03T05:14:06.888Z,3.35
2022-09-03T05:15:08.818Z,3.47
2022-09-03T05:16:11.262Z,3.50
2022-09-03T05:17:12.909Z,3.38
2022-09-03T05:18:15.100Z,3.25
2022-09-03T05:19:16.859Z,3.20
2022-09-03T05:20:18.533Z,2.95
2022-09-03T05:21:20.240Z,3.33
2022-09-03T05:22:21.869Z,3.35
2022-09-03T05:23:23.532Z,2.95
2022-09-03T05:24:25.170Z,2.92
2022-09-03T05:25:27.196Z,3.17
2022-09-03T05:26:33.187Z,2.70
2022-09-03T05:27:34.826Z,2.75
2022-09-03T05:28:37.599Z,3.05
2022-09-03T05:29:39.345Z,2.67
2022-09-03T05:30:41.246Z,3.03
2022-09-03T05:31:42.883Z,2.40
2022-09-03T05:32:44.574Z,2.70
2022-09-03T05:33:53.697Z,3.15
2022-09-03T05:34:55.625Z,2.83
2022-09-03T05:36:04.647Z,2.80
2022-09-03T05:37:06.337Z,2.85
2022-09-03T05:38:08.806Z,3.08
2022-09-03T05:39:10.406Z,2.75
2022-09-03T05:40:12.137Z,2.90
2022-09-03T05:41:14.763Z,2.67
2022-09-03T05:42:16.415Z,2.60
2022-09-03T05:43:18.049Z,2.65
2022-09-03T05:44:23.183Z,2.60
2022-09-03T05:45:25.586Z,2.28
2022-09-03T05:46:32.374Z,2.47
2022-09-03T05:47:34.249Z,2.55
2022-09-03T05:48:36.582Z,2.60
2022-09-03T05:49:38.483Z,2.55
2022-09-03T05:50:40.144Z,2.13
2022-09-03T05:51:42.629Z,2.70
2022-09-03T05:52:44.264Z,2.30
2022-09-03T05:53:47.808Z,2.00
2022-09-03T05:54:49.556Z,2.03
2022-09-03T05:55:58.186Z,2.25
2022-09-03T05:56:59.795Z,2.30
2022-09-03T05:58:01.396Z,2.10
2022-09-03T05:59:06.939Z,2.08
2022-09-03T06:00:09.850Z,1.90
2022-09-03T06:01:15.785Z,2.07
2022-09-03T06:02:19.850Z,2.08
2022-09-03T06:03:21.837Z,1.92
2022-09-03T06:04:24.779Z,2.20
2022-09-03T06:05:26.629Z,1.77
2022-09-03T06:06:29.322Z,2.63
2022-09-03T06:07:31.255Z,2.55
2022-09-03T06:08:33.578Z,1.90
2022-09-03T06:09:35.186Z,1.73
2022-09-03T06:10:41.034Z,2.13
2022-09-03T06:11:43.129Z,1.73
2022-09-03T06:12:49.800Z,2.28
2022-09-03T06:13:51.494Z,1.83
2022-09-03T06:14:53.184Z,1.98
2022-09-03T06:15:58.105Z,2.15
2022-09-03T06:16:59.915Z,1.55
2022-09-03T06:18:01.624Z,1.70
2022-09-03T06:19:10.334Z,1.70
2022-09-03T06:20:12.025Z,1.60
2022-09-03T06:21:15.119Z,1.85
2022-09-03T06:22:17.258Z,1.60
2022-09-03T06:23:18.886Z,1.60
2022-09-03T06:24:26.508Z,1.83
2022-09-03T06:25:30.306Z,1.50
2022-09-03T06:26:31.934Z,1.98
2022-09-03T06:27:33.793Z,1.63
2022-09-03T06:28:38.147Z,1.60
2022-09-03T06:29:40.016Z,1.63
2022-09-03T06:30:42.024Z,1.65
2022-09-03T06:31:43.829Z,1.63
2022-09-03T06:32:50.530Z,1.40
2022-09-03T06:33:54.741Z,1.60
2022-09-03T06:34:56.564Z,1.45
2022-09-03T06:35:59.462Z,2.08
2022-09-03T06:37:01.754Z,1.85
2022-09-03T06:38:03.399Z,1.67
2022-09-03T06:39:05.530Z,1.95
2022-09-03T06:40:13.729Z,1.90
2022-09-03T06:41:23.962Z,1.90
2022-09-03T06:42:25.599Z,1.90
2022-09-03T06:43:27.264Z,1.80
2022-09-03T06:44:28.989Z,2.03
2022-09-03T06:45:30.921Z,1.90
2022-09-03T06:46:36.186Z,2.40
2022-09-03T06:47:37.801Z,2.17
2022-09-03T06:48:39.642Z,1.73
2022-09-03T06:49:41.612Z,2.33
2022-09-03T06:50:43.508Z,2.17
2022-09-03T06:51:45.285Z,2.15
2022-09-03T06:52:53.165Z,1.80
2022-09-03T06:53:59.535Z,2.53
2022-09-03T06:55:01.241Z,2.17
2022-09-03T06:56:13.342Z,2.05
2022-09-03T06:57:15.006Z,2.30
2022-09-03T06:58:17.013Z,2.30
2022-09-03T06:59:18.621Z,2.05
2022-09-03T07:00:21.893Z,2.25
2022-09-03T07:01:25.951Z,2.15
2022-09-03T07:02:27.773Z,2.47
2022-09-03T07:03:29.898Z,2.25
2022-09-03T07:04:34.756Z,2.60
2022-09-03T07:05:37.658Z,2.40
2022-09-03T07:06:40.563Z,1.95
2022-09-03T07:07:42.166Z,2.28
2022-09-03T07:08:43.849Z,2.00
2022-09-03T07:09:48.389Z,1.80
2022-09-03T07:10:51.331Z,1.48
2022-09-03T07:11:53.049Z,1.85
2022-09-03T07:12:56.041Z,2.25
2022-09-03T07:13:58.242Z,2.50
2022-09-03T07:14:59.897Z,1.97
2022-09-03T07:16:03.925Z,2.03
2022-09-03T07:17:05.595Z,2.50
2022-09-03T07:18:07.261Z,2.28
2022-09-03T07:19:09.346Z,2.00
2022-09-03T07:20:10.988Z,2.20
2022-09-03T07:21:16.967Z,2.28
2022-09-03T07:22:18.574Z,2.50
2022-09-03T07:23:20.201Z,2.00
2022-09-03T07:24:22.491Z,2.35
2022-09-03T07:25:26.223Z,2.30
2022-09-03T07:26:30.414Z,2.53
2022-09-03T07:27:32.068Z,2.63
2022-09-03T07:28:35.363Z,2.25
2022-09-03T07:29:37.011Z,2.38
2022-09-03T07:30:38.688Z,2.13
2022-09-03T07:31:41.650Z,2.17
2022-09-03T07:32:43.324Z,1.90
2022-09-03T07:33:45.008Z,2.20
2022-09-03T07:34:46.776Z,2.42
2022-09-03T07:35:48.518Z,2.63
2022-09-03T07:36:51.941Z,2.55
2022-09-03T07:37:55.236Z,2.47
2022-09-03T07:38:57.851Z,2.08
2022-09-03T07:39:59.720Z,2.20
2022-09-03T07:41:04.424Z,2.50
2022-09-03T07:42:08.809Z,2.45
2022-09-03T07:43:10.628Z,2.45
2022-09-03T07:44:13.266Z,2.03
2022-09-03T07:45:14.944Z,2.72
2022-09-03T07:46:23.803Z,2.23
2022-09-03T07:47:27.010Z,2.47
2022-09-03T07:48:28.807Z,1.95
2022-09-03T07:49:30.436Z,2.78
2022-09-03T07:50:37.770Z,2.25
2022-09-03T07:51:39.591Z,2.05
2022-09-03T07:52:41.434Z,2.17
2022-09-03T07:53:43.357Z,2.38
2022-09-03T07:54:44.993Z,1.92
2022-09-03T07:55:48.127Z,2.60
2022-09-03T07:56:49.791Z,1.93
2022-09-03T07:57:56.590Z,2.20
2022-09-03T07:58:58.565Z,2.15
2022-09-03T08:00:00.241Z,2.42
2022-09-03T08:01:06.459Z,2.40
2022-09-03T08:02:08.135Z,2.10
2022-09-03T08:03:10.752Z,2.13
2022-09-03T08:04:12.411Z,2.03
2022-09-03T08:05:14.023Z,2.85
2022-09-03T08:06:16.272Z,2.38
2022-09-03T08:07:17.999Z,2.50
2022-09-03T08:08:19.934Z,2.42
2022-09-03T08:09:21.562Z,2.28
2022-09-03T08:10:24.797Z,2.53
2022-09-03T08:11:26.671Z,2.05
2022-09-03T08:12:28.296Z,2.10
2022-09-03T08:13:29.949Z,1.95
2022-09-03T08:14:31.827Z,2.20
2022-09-03T08:15:34.400Z,2.22
2022-09-03T08:16:41.915Z,2.60
2022-09-03T08:17:44.886Z,2.50
2022-09-03T08:18:47.627Z,2.95
2022-09-03T08:19:49.215Z,2.45
2022-09-03T08:20:50.871Z,2.28
2022-09-03T08:21:52.477Z,2.40
2022-09-03T08:23:01.200Z,2.47
2022-09-03T08:24:03.120Z,2.22
2022-09-03T08:25:05.024Z,2.40
2022-09-03T08:26:07.169Z,2.53
2022-09-03T08:27:09.260Z,2.20
2022-09-03T08:28:10.917Z,2.20
2022-09-03T08:29:12.505Z,2.60
2022-09-03T08:30:14.126Z,2.65
2022-09-03T08:31:18.657Z,2.20
2022-09-03T08:32:20.464Z,2.20
2022-09-03T08:33:37.166Z,2.50
2022-09-03T08:34:38.787Z,2.65
2022-09-03T08:35:40.427Z,2.20
2022-09-03T08:36:42.072Z,2.45
2022-09-03T08:37:43.704Z,2.63
2022-09-03T08:38:46.449Z,2.20
2022-09-03T08:39:48.125Z,2.75
2022-09-03T08:40:50.176Z,2.55
2022-09-03T08:41:52.613Z,2.70
2022-09-03T08:43:26.792Z,2.60
2022-09-03T08:44:38.094Z,2.58
2022-09-03T08:45:39.770Z,2.58
2022-09-03T08:46:49.084Z,2.50
2022-09-03T08:47:57.256Z,2.70
2022-09-03T08:48:59.887Z,2.70
2022-09-03T08:50:04.513Z,2.53
2022-09-03T08:51:06.162Z,2.30
2022-09-03T08:52:22.172Z,2.30
2022-09-03T08:53:34.129Z,2.67
2022-09-03T08:54:35.762Z,2.35
2022-09-03T08:55:55.213Z,2.50
2022-09-03T08:56:57.244Z,2.20
2022-09-03T08:58:28.093Z,2.28
2022-09-03T08:59:33.305Z,2.03
2022-09-03T09:00:43.705Z,2.42
2022-09-03T09:01:52.293Z,2.90
2022-09-03T09:03:31.547Z,2.33
2022-09-03T09:04:45.240Z,2.45
2022-09-03T09:05:51.871Z,2.28
2022-09-03T09:07:01.896Z,2.20
2022-09-03T09:08:10.114Z,2.45
2022-09-03T09:09:35.899Z,2.22
2022-09-03T09:10:58.433Z,1.90
2022-09-03T09:12:21.437Z,2.20
2022-09-03T09:13:43.599Z,2.10
2022-09-03T09:15:01.656Z,2.10
2022-09-03T09:16:12.425Z,2.20
2022-09-03T09:17:37.359Z,1.95
2022-09-03T09:18:48.538Z,2.30
2022-09-03T09:20:01.938Z,2.10
2022-09-03T09:21:09.632Z,1.92
2022-09-03T09:22:15.090Z,1.90
2022-09-03T09:23:40.838Z,2.20
2022-09-03T09:24:44.536Z,2.13
2022-09-03T09:25:50.207Z,1.85
2022-09-03T09:27:03.038Z,2.00
2022-09-03T09:28:23.507Z,2.08
2022-09-03T09:29:27.612Z,2.28
2022-09-03T09:30:30.822Z,2.00
2022-09-03T09:31:32.584Z,2.40
2022-09-03T09:32:35.082Z,2.38
2022-09-03T09:33:36.746Z,2.10
2022-09-03T09:34:38.632Z,1.80
2022-09-03T09:35:42.541Z,2.28
2022-09-03T09:36:54.422Z,1.90
2022-09-03T09:37:58.487Z,2.00
2022-09-03T09:39:09.673Z,1.63
2022-09-03T09:40:11.310Z,2.30
2022-09-03T09:41:28.980Z,1.95
2022-09-03T09:42:31.825Z,2.15
2022-09-03T09:43:33.677Z,1.95
2022-09-03T09:44:36.481Z,2.15
2022-09-03T09:45:42.535Z,2.47
2022-09-03T09:46:44.631Z,2.15
2022-09-03T09:47:46.329Z,1.88
2022-09-03T09:48:52.932Z,2.20
2022-09-03T09:49:59.289Z,1.52
2022-09-03T09:51:11.069Z,1.80
2022-09-03T09:52:14.039Z,1.63
2022-09-03T09:53:18.183Z,1.65
2022-09-03T09:54:20.286Z,1.70
2022-09-03T09:55:23.745Z,1.90
2022-09-03T09:56:25.749Z,1.80
2022-09-03T09:57:27.463Z,1.52
2022-09-03T09:58:30.991Z,1.50
2022-09-03T09:59:34.351Z,1.60
2022-09-03T10:00:37.837Z,1.73
2022-09-03T10:01:40.856Z,1.65
2022-09-03T10:02:54.605Z,2.47
2022-09-03T10:03:57.406Z,2.25
2022-09-03T10:05:02.428Z,1.83
2022-09-03T10:06:26.684Z,1.58
2022-09-03T10:07:31.439Z,1.50
2022-09-03T10:08:33.156Z,1.42
2022-09-03T10:09:34.823Z,1.73
2022-09-03T10:10:40.049Z,1.73
2022-09-03T10:11:45.157Z,1.48
2022-09-03T10:13:03.077Z,1.10
2022-09-03T10:14:04.741Z,1.42
2022-09-03T10:15:21.524Z,1.40
2022-09-03T10:16:28.094Z,1.30
2022-09-03T10:17:51.209Z,1.10
2022-09-03T10:19:05.034Z,1.30
2022-09-03T10:20:37.438Z,1.30
2022-09-03T10:22:07.910Z,1.23
2022-09-03T10:23:25.901Z,1.07
2022-09-03T10:24:53.308Z,1.40
2022-09-03T10:25:58.203Z,1.33
2022-09-03T10:26:59.840Z,1.20
2022-09-03T10:28:02.184Z,1.27
2022-09-03T10:29:05.942Z,1.40
2022-09-03T10:30:08.912Z,1.15
2022-09-03T10:31:44.359Z,1.40
2022-09-03T10:33:26.546Z,1.30
2022-09-03T10:35:04.586Z,1.20
2022-09-03T10:36:33.508Z,1.30
2022-09-03T10:37:38.884Z,1.60
2022-09-03T10:38:40.594Z,1.40
2022-09-03T10:39:52.573Z,1.13
2022-09-03T10:40:58.655Z,1.40
2022-09-03T10:42:22.239Z,1.27
2022-09-03T10:43:45.920Z,1.45
2022-09-03T10:45:05.425Z,1.20
2022-09-03T10:46:23.837Z,1.25
2022-09-03T10:47:35.964Z,1.13
2022-09-03T10:48:55.693Z,1.30
2022-09-03T10:50:18.345Z,1.20
2022-09-03T10:51:34.105Z,1.20
2022-09-03T10:52:51.125Z,1.20
2022-09-03T10:53:55.459Z,1.10
2022-09-03T10:55:38.734Z,1.00
2022-09-03T10:56:51.049Z,1.60
2022-09-03T10:58:24.756Z,1.33
2022-09-03T10:59:46.278Z,1.40
2022-09-03T11:00:53.067Z,1.60
2022-09-03T11:02:00.557Z,1.20
2022-09-03T11:03:26.461Z,0.93
2022-09-03T11:04:49.412Z,1.20
2022-09-03T11:05:52.789Z,1.10
2022-09-03T11:06:55.430Z,1.30
2022-09-03T11:07:58.687Z,1.02
2022-09-03T11:09:19.682Z,1.10
2022-09-03T11:10:32.198Z,0.95
2022-09-03T11:11:38.371Z,1.00
2022-09-03T11:12:43.771Z,1.33
2022-09-03T11:13:49.181Z,1.47
2022-09-03T11:14:56.645Z,1.10
2022-09-03T11:16:05.168Z,1.45
2022-09-03T11:17:29.568Z,1.10
2022-09-03T11:18:41.299Z,1.50
2022-09-03T11:19:51.311Z,1.13
2022-09-03T11:20:55.263Z,1.40
2022-09-03T11:21:56.888Z,1.10
2022-09-03T11:23:01.553Z,1.10
2022-09-03T11:24:14.597Z,1.15
2022-09-03T11:25:17.661Z,1.20
2022-09-03T11:26:19.962Z,1.38
2022-09-03T11:27:36.336Z,1.15
2022-09-03T11:29:12.733Z,1.10
2022-09-03T11:30:15.582Z,1.20
2022-09-03T11:31:41.455Z,1.00
2022-09-03T11:32:56.877Z,1.27
2022-09-03T11:34:34.936Z,1.50
2022-09-03T11:35:36.516Z,1.10
2022-09-03T11:36:38.767Z,0.95
2022-09-03T11:38:07.713Z,0.77
2022-09-03T11:39:33.830Z,1.13
2022-09-03T11:40:37.149Z,1.38
2022-09-03T11:41:39.888Z,1.58
2022-09-03T11:42:42.305Z,0.82
2022-09-03T11:43:44.419Z,1.00
2022-09-03T11:44:51.365Z,1.02
2022-09-03T11:46:11.966Z,0.82
2022-09-03T11:47:37.831Z,0.80
2022-09-03T11:48:46.719Z,1.10
2022-09-03T11:49:50.916Z,0.73
2022-09-03T11:50:54.421Z,1.15
2022-09-03T11:51:59.652Z,0.90
2022-09-03T11:53:14.140Z,1.08
2022-09-03T11:54:23.838Z,0.82
2022-09-03T11:55:55.792Z,1.15
2022-09-03T11:57:13.294Z,1.20
2022-09-03T11:58:34.848Z,1.40
2022-09-03T11:59:36.490Z,1.40
2022-09-03T12:00:38.934Z,1.20
2022-09-03T12:02:11.791Z,1.20
2022-09-03T12:03:16.025Z,1.20
2022-09-03T12:04:18.255Z,1.00
2022-09-03T12:06:07.154Z,1.23
2022-09-03T12:07:14.331Z,1.25
2022-09-03T12:08:28.871Z,0.95
2022-09-03T12:10:00.488Z,1.10
2022-09-03T12:11:21.346Z,1.15
2022-09-03T12:12:36.572Z,1.02
2022-09-03T12:13:57.868Z,1.10
2022-09-03T12:15:03.841Z,1.00
2022-09-03T12:16:48.019Z,1.35
2022-09-03T12:18:21.091Z,1.00
2022-09-03T12:19:54.396Z,1.27
2022-09-03T12:20:56.159Z,1.25
2022-09-03T12:21:57.841Z,1.20
2022-09-03T12:22:59.547Z,0.98
2022-09-03T12:24:02.079Z,0.80
2022-09-03T12:25:13.948Z,1.00
2022-09-03T12:26:20.588Z,1.00
2022-09-03T12:27:25.452Z,1.00
2022-09-03T12:28:27.110Z,0.90
2022-09-03T12:29:31.105Z,0.90
2022-09-03T12:30:32.905Z,1.10
2022-09-03T12:31:45.138Z,1.05
2022-09-03T12:32:48.399Z,1.00
2022-09-03T12:33:54.628Z,1.13
2022-09-03T12:34:56.267Z,1.20
2022-09-03T12:35:59.562Z,0.93
2022-09-03T12:37:01.659Z,0.93
2022-09-03T12:38:06.877Z,1.17
2022-09-03T12:39:17.102Z,1.00
2022-09-03T12:40:23.923Z,1.25
2022-09-03T12:41:28.067Z,0.98
2022-09-03T12:42:30.993Z,1.20
2022-09-03T12:43:41.151Z,1.17
2022-09-03T12:44:44.176Z,0.70
2022-09-03T12:48:35.807Z,1.08
2022-09-03T12:49:38.975Z,1.10
2022-09-03T12:50:42.504Z,1.20
2022-09-03T12:51:54.411Z,0.90
2022-09-03T12:52:59.941Z,1.13
2022-09-03T12:54:02.152Z,0.98
2022-09-03T12:55:27.930Z,1.08
2022-09-03T12:56:34.956Z,0.85
2022-09-03T12:57:41.772Z,0.80
2022-09-03T12:59:07.353Z,1.00
2022-09-03T13:00:10.663Z,0.98
2022-09-03T13:01:19.846Z,0.90
2022-09-03T13:02:26.347Z,0.80
2022-09-03T13:03:50.275Z,0.80
2022-09-03T13:04:52.883Z,0.90
2022-09-03T13:05:57.372Z,0.90
2022-09-03T13:07:28.050Z,1.13
2022-09-03T13:08:32.464Z,1.00
2022-09-03T13:09:36.649Z,0.80
2022-09-03T13:10:41.402Z,1.00
2022-09-03T13:11:45.243Z,0.90
2022-09-03T13:12:53.435Z,1.20
2022-09-03T13:14:05.458Z,1.15
2022-09-03T13:15:08.823Z,0.80
2022-09-03T13:16:19.054Z,0.98
2022-09-03T13:18:00.196Z,0.98
2022-09-03T13:19:09.789Z,1.10
2022-09-03T13:20:34.119Z,0.90
2022-09-03T13:22:00.341Z,1.13
2022-09-03T13:23:40.611Z,0.93
2022-09-03T13:25:00.844Z,0.85
2022-09-03T13:26:08.971Z,0.80
2022-09-03T13:27:18.223Z,1.00
2022-09-03T13:28:27.710Z,1.23
2022-09-03T13:29:58.320Z,1.30
2022-09-03T13:31:06.629Z,0.90
2022-09-03T13:32:26.532Z,1.15
2022-09-03T13:33:50.778Z,1.20
2022-09-03T13:34:58.294Z,1.50
2022-09-03T13:36:02.620Z,1.27
2022-09-03T13:37:50.458Z,1.10
2022-09-03T13:38:54.685Z,1.23
2022-09-03T13:40:02.694Z,1.15
2022-09-03T13:41:19.839Z,1.10
2022-09-03T13:42:31.413Z,0.90
2022-09-03T13:43:43.744Z,1.08
2022-09-03T13:45:02.204Z,1.20
2022-09-03T13:46:07.664Z,1.20
2022-09-03T13:47:33.306Z,1.30
2022-09-03T13:49:00.077Z,0.90
2022-09-03T13:50:23.649Z,1.08
2022-09-03T13:51:32.966Z,0.87
2022-09-03T13:52:43.094Z,1.30
2022-09-03T13:54:10.028Z,0.98
2022-09-03T13:55:23.251Z,0.77
2022-09-03T13:56:43.218Z,0.60
2022-09-03T13:57:51.284Z,0.80
2022-09-03T13:59:17.419Z,0.77
2022-09-03T14:00:43.825Z,0.93
2022-09-03T14:02:10.171Z,0.90
2022-09-03T14:03:33.798Z,0.70
2022-09-03T14:04:41.531Z,0.80
2022-09-03T14:06:07.692Z,0.98
2022-09-03T14:07:13.801Z,1.10
2022-09-03T14:08:58.164Z,0.90
2022-09-03T14:10:28.229Z,0.75
2022-09-03T14:11:38.281Z,1.00
2022-09-03T14:12:49.681Z,0.80
2022-09-03T14:14:10.974Z,1.20
2022-09-03T14:15:29.790Z,0.80
2022-09-03T14:16:38.334Z,0.90
2022-09-03T14:17:59.404Z,1.00
2022-09-03T14:19:07.329Z,0.90
2022-09-03T14:20:32.521Z,0.60
2022-09-03T14:21:45.585Z,0.90
2022-09-03T14:22:53.757Z,0.80
2022-09-03T14:24:05.437Z,0.90
2022-09-03T14:25:14.060Z,0.93
2022-09-03T14:26:35.868Z,0.60
2022-09-03T14:27:40.074Z,0.98
2022-09-03T14:28:49.783Z,1.00
2022-09-03T14:29:54.897Z,0.90
2022-09-03T14:31:29.568Z,1.08
2022-09-03T14:32:59.011Z,0.70
2022-09-03T14:34:03.785Z,0.70
2022-09-03T14:35:29.187Z,0.60
2022-09-03T14:36:53.994Z,0.70
2022-09-03T14:38:07.576Z,0.80
2022-09-03T14:39:27.789Z,0.60
2022-09-03T14:40:55.544Z,0.90
2022-09-03T14:42:04.539Z,0.77
2022-09-03T14:43:43.437Z,0.80
2022-09-03T14:44:48.052Z,0.90
2022-09-03T14:46:06.219Z,0.55
2022-09-03T14:47:16.745Z,0.90
2022-09-03T14:48:32.037Z,0.98
2022-09-03T14:50:24.650Z,1.00
2022-09-03T14:51:52.683Z,1.00
2022-09-03T14:53:28.636Z,0.93
2022-09-03T14:54:45.570Z,0.95
2022-09-03T14:56:13.595Z,1.20
2022-09-03T14:57:33.873Z,1.00
2022-09-03T14:58:58.645Z,1.00
2022-09-03T15:00:20.090Z,1.05
2022-09-03T15:01:38.967Z,1.20
2022-09-03T15:03:05.440Z,0.95
2022-09-03T15:04:25.603Z,1.30
2022-09-03T15:05:53.621Z,0.90
2022-09-03T15:07:24.081Z,1.15
2022-09-03T15:08:40.853Z,1.40
2022-09-03T15:10:17.246Z,0.90
2022-09-03T15:11:20.479Z,1.10
2022-09-03T15:12:50.278Z,0.85
2022-09-03T15:13:54.108Z,1.00
2022-09-03T15:14:59.254Z,1.00
2022-09-03T15:16:19.543Z,1.20
2022-09-03T15:17:45.518Z,1.00
2022-09-03T15:19:09.962Z,1.00